Time;durP1;ratioP1;P1;durP2;ratioP2;P2;SDS_P1;SDS_P2;PMS_P1;PMS_P2;Temp;Humidity;BMP_temperature;BMP_pressure;BME280_temperature;BME280_humidity;BME280_pressure;Samples;Min_cycle;Max_cycle;Signal;HPM_P1;HPM_P2
2022/08/10 00:00:49;;;;;;;6.93;3.63;;;;;;;;;;4964216;28;20687;-76
2022/08/10 00:03:15;;;;;;;6.70;3.58;;;;;;;;;;4970769;28;20541;-77
2022/08/10 00:05:41;;;;;;;8.10;3.47;;;;;;;;;;5052181;28;20052;-76
2022/08/10 00:08:07;;;;;;;4.00;3.30;;;;;;;;;;5047641;28;20035;-76
2022/08/10 00:10:33;;;;;;;5.78;3.80;;;;;;;;;;5061129;28;20029;-75
2022/08/10 00:12:59;;;;;;;4.40;3.65;;;;;;;;;;5050566;28;20521;-76
2022/08/10 00:15:25;;;;;;;7.15;4.65;;;;;;;;;;5064587;28;20032;-75
2022/08/10 00:17:52;;;;;;;5.82;3.97;;;;;;;;;;5048896;28;20029;-77
2022/08/10 00:20:18;;;;;;;6.28;4.10;;;;;;;;;;5044374;28;20040;-75
2022/08/10 00:22:44;;;;;;;8.18;4.13;;;;;;;;;;5052767;28;20048;-76
2022/08/10 00:25:10;;;;;;;6.90;4.88;;;;;;;;;;5048134;28;20040;-76
2022/08/10 00:27:36;;;;;;;9.35;3.97;;;;;;;;;;5075448;28;20090;-76
2022/08/10 00:30:03;;;;;;;9.38;4.13;;;;;;;;;;5048931;28;20033;-76
2022/08/10 00:32:29;;;;;;;6.20;4.30;;;;;;;;;;5052936;28;20041;-76
2022/08/10 00:34:55;;;;;;;5.28;4.53;;;;;;;;;;5047318;28;20049;-76
2022/08/10 00:37:21;;;;;;;5.53;4.70;;;;;;;;;;5050363;28;20082;-76
2022/08/10 00:39:47;;;;;;;8.68;5.00;;;;;;;;;;5044211;28;20028;-76
2022/08/10 00:42:13;;;;;;;5.25;4.15;;;;;;;;;;5060804;28;20033;-76
2022/08/10 00:44:42;;;;;;;5.65;4.88;;;;;;;;;;5052561;28;20025;-77
2022/08/10 00:47:09;;;;;;;5.75;4.40;;;;;;;;;;5049005;28;20048;-76
2022/08/10 00:49:35;;;;;;;5.20;4.70;;;;;;;;;;5065376;28;20029;-76
2022/08/10 00:52:02;;;;;;;7.32;4.90;;;;;;;;;;5050599;28;20492;-75
2022/08/10 00:54:28;;;;;;;5.40;4.72;;;;;;;;;;5046862;28;20163;-76
2022/08/10 00:56:56;;;;;;;9.07;4.82;;;;;;;;;;5046041;28;20410;-76
2022/08/10 00:59:22;;;;;;;5.50;4.97;;;;;;;;;;5051355;28;20033;-77
2022/08/10 01:01:49;;;;;;;8.20;4.93;;;;;;;;;;5048009;28;20021;-76
2022/08/10 01:04:15;;;;;;;5.35;4.70;;;;;;;;;;4988185;28;20357;-76
2022/08/10 01:06:50;;;;;;;10.77;5.65;;;;;;;;;;4964931;28;20080;-75
2022/08/10 01:09:34;;;;;;;7.88;5.00;;;;;;;;;;4965634;28;20038;-77
2022/08/10 01:12:16;;;;;;;9.32;5.07;;;;;;;;;;4963915;28;20037;-76
2022/08/10 01:14:49;;;;;;;8.55;5.22;;;;;;;;;;4949500;28;20039;-76
2022/08/10 01:17:25;;;;;;;6.93;5.88;;;;;;;;;;4964177;28;20491;-76
2022/08/10 01:19:57;;;;;;;5.55;4.82;;;;;;;;;;4963207;28;20106;-76
2022/08/10 01:22:42;;;;;;;6.20;4.75;;;;;;;;;;4966266;28;20034;-76
2022/08/10 01:25:20;;;;;;;8.23;5.30;;;;;;;;;;4942108;28;20035;-76
2022/08/10 01:28:04;;;;;;;5.32;4.82;;;;;;;;;;4962241;28;20069;-76
2022/08/10 01:30:32;;;;;;;6.72;5.22;;;;;;;;;;4965838;28;20403;-76
2022/08/10 01:33:07;;;;;;;6.50;4.95;;;;;;;;;;4950796;28;20054;-76
2022/08/10 01:35:36;;;;;;;7.50;5.22;;;;;;;;;;4961958;28;20038;-76
2022/08/10 01:38:11;;;;;;;5.90;4.80;;;;;;;;;;4953822;28;20034;-76
2022/08/10 01:40:39;;;;;;;8.02;5.25;;;;;;;;;;4965650;28;20030;-75
2022/08/10 01:43:08;;;;;;;6.43;5.45;;;;;;;;;;4961735;28;20080;-85
2022/08/10 01:45:35;;;;;;;6.57;5.45;;;;;;;;;;4962171;28;20030;-76
2022/08/10 01:51:04;;;;;;;6.60;5.07;;;;;;;;;;4963048;28;20439;-76
2022/08/10 01:53:52;;;;;;;7.13;4.93;;;;;;;;;;4967163;28;20046;-76
2022/08/10 01:56:21;;;;;;;7.30;5.40;;;;;;;;;;4961181;28;20031;-76
2022/08/10 01:58:53;;;;;;;10.90;5.55;;;;;;;;;;4960544;28;20122;-77
2022/08/10 02:01:22;;;;;;;6.40;5.30;;;;;;;;;;4965112;28;20120;-76
2022/08/10 02:03:50;;;;;;;6.07;5.45;;;;;;;;;;4968859;28;20043;-76
2022/08/10 02:06:16;;;;;;;6.50;5.38;;;;;;;;;;4963690;28;20026;-76
2022/08/10 02:08:43;;;;;;;14.52;5.85;;;;;;;;;;4966929;28;20699;-75
2022/08/10 02:11:10;;;;;;;5.75;5.15;;;;;;;;;;4961471;28;20084;-75
2022/08/10 02:13:37;;;;;;;8.68;5.93;;;;;;;;;;4966942;28;20102;-75
2022/08/10 02:16:05;;;;;;;7.25;5.70;;;;;;;;;;4963065;28;20106;-76
2022/08/10 02:18:32;;;;;;;7.30;5.90;;;;;;;;;;4966211;28;20081;-86
2022/08/10 02:20:59;;;;;;;9.10;5.85;;;;;;;;;;4934688;28;20030;-86
2022/08/10 02:23:27;;;;;;;9.73;6.10;;;;;;;;;;4968311;28;20383;-85
2022/08/10 02:25:53;;;;;;;9.20;5.75;;;;;;;;;;4967118;28;20029;-84
2022/08/10 02:28:21;;;;;;;9.02;6.10;;;;;;;;;;4960067;28;20032;-85
2022/08/10 02:30:48;;;;;;;8.25;6.40;;;;;;;;;;4949873;28;20031;-86
2022/08/10 02:33:16;;;;;;;11.13;6.20;;;;;;;;;;4966453;28;20084;-85
2022/08/10 02:35:43;;;;;;;8.35;6.38;;;;;;;;;;4962023;28;20035;-85
2022/08/10 02:38:10;;;;;;;7.45;6.32;;;;;;;;;;4968175;28;20122;-85
2022/08/10 02:40:38;;;;;;;9.65;7.22;;;;;;;;;;4963720;28;20089;-85
2022/08/10 02:43:20;;;;;;;9.27;6.75;;;;;;;;;;4963546;28;20126;-85
2022/08/10 02:45:52;;;;;;;10.05;7.30;;;;;;;;;;4962321;28;20400;-85
2022/08/10 02:48:23;;;;;;;11.38;7.40;;;;;;;;;;4948596;28;20030;-85
2022/08/10 02:50:56;;;;;;;9.77;7.60;;;;;;;;;;4959551;28;20111;-85
2022/08/10 02:53:25;;;;;;;10.82;7.43;;;;;;;;;;5029395;28;20038;-85
2022/08/10 02:55:56;;;;;;;10.25;7.28;;;;;;;;;;4964091;28;20065;-85
2022/08/10 02:58:27;;;;;;;8.88;7.00;;;;;;;;;;4968055;28;20071;-85
2022/08/10 03:00:55;;;;;;;8.35;6.97;;;;;;;;;;4965726;28;20061;-90
2022/08/10 03:03:23;;;;;;;12.55;7.70;;;;;;;;;;4951809;28;20035;-85
2022/08/10 03:05:50;;;;;;;10.30;7.75;;;;;;;;;;4948160;28;20506;-85
2022/08/10 03:08:18;;;;;;;10.88;8.25;;;;;;;;;;4949886;28;20026;-85
2022/08/10 03:10:46;;;;;;;11.93;8.07;;;;;;;;;;4962102;28;20037;-86
2022/08/10 03:13:13;;;;;;;13.25;8.25;;;;;;;;;;4948890;28;20156;-86
2022/08/10 03:15:39;;;;;;;9.68;7.95;;;;;;;;;;4963284;28;20042;-86
2022/08/10 03:18:07;;;;;;;10.80;8.75;;;;;;;;;;4962508;28;20392;-86
2022/08/10 03:20:35;;;;;;;11.15;8.27;;;;;;;;;;4950254;28;20034;-86
2022/08/10 03:23:04;;;;;;;11.52;9.30;;;;;;;;;;4965518;28;20029;-76
2022/08/10 03:25:30;;;;;;;14.52;9.05;;;;;;;;;;5033588;28;20551;-85
2022/08/10 03:27:56;;;;;;;13.85;9.70;;;;;;;;;;4966868;28;20503;-85
2022/08/10 03:30:22;;;;;;;13.05;9.80;;;;;;;;;;4947612;28;20145;-75
2022/08/10 03:32:49;;;;;;;14.40;9.95;;;;;;;;;;4962283;28;20243;-85
2022/08/10 03:35:16;;;;;;;13.07;9.80;;;;;;;;;;4964801;28;20500;-85
2022/08/10 03:37:42;;;;;;;14.48;10.57;;;;;;;;;;4964712;28;20035;-85
2022/08/10 03:40:08;;;;;;;16.27;11.20;;;;;;;;;;4943817;28;20061;-85
2022/08/10 03:42:36;;;;;;;16.27;11.05;;;;;;;;;;4958396;28;20023;-85
2022/08/10 03:45:03;;;;;;;14.13;10.88;;;;;;;;;;4965621;28;20065;-85
2022/08/10 03:47:30;;;;;;;15.82;11.07;;;;;;;;;;5029616;28;20054;-85
2022/08/10 03:49:57;;;;;;;19.95;13.45;;;;;;;;;;4932474;28;20035;-85
2022/08/10 03:52:24;;;;;;;17.42;12.50;;;;;;;;;;4959488;28;20039;-85
2022/08/10 03:54:51;;;;;;;19.45;11.82;;;;;;;;;;4949662;28;20027;-84
2022/08/10 03:57:17;;;;;;;22.42;12.68;;;;;;;;;;4964985;28;20034;-84
2022/08/10 03:59:43;;;;;;;20.73;13.43;;;;;;;;;;4945657;28;20030;-86
2022/08/10 04:02:10;;;;;;;18.73;12.57;;;;;;;;;;4966236;28;20498;-86
2022/08/10 04:04:36;;;;;;;20.75;13.60;;;;;;;;;;4964763;28;20055;-87
2022/08/10 04:07:02;;;;;;;23.35;13.70;;;;;;;;;;4947438;28;20045;-86
2022/08/10 04:09:33;;;;;;;22.48;13.32;;;;;;;;;;5031674;28;20482;-86
2022/08/10 04:11:59;;;;;;;24.20;14.18;;;;;;;;;;4962734;28;20396;-86
2022/08/10 04:14:25;;;;;;;23.98;13.95;;;;;;;;;;4947984;28;20477;-86
2022/08/10 04:16:51;;;;;;;22.42;14.13;;;;;;;;;;4970307;28;20079;-85
2022/08/10 04:19:18;;;;;;;23.75;15.13;;;;;;;;;;4940853;28;20044;-85
2022/08/10 04:21:47;;;;;;;23.58;14.63;;;;;;;;;;4973276;28;20463;-86
2022/08/10 04:24:17;;;;;;;26.60;15.02;;;;;;;;;;4969532;28;20098;-85
2022/08/10 04:26:43;;;;;;;23.40;14.60;;;;;;;;;;4969188;28;20038;-85
2022/08/10 04:29:09;;;;;;;27.38;15.30;;;;;;;;;;4969010;28;20193;-86
2022/08/10 04:31:36;;;;;;;29.25;16.20;;;;;;;;;;4967277;28;20114;-85
2022/08/10 04:34:02;;;;;;;27.88;16.13;;;;;;;;;;4951625;28;20100;-85
2022/08/10 04:36:29;;;;;;;29.42;17.13;;;;;;;;;;4954776;28;20508;-85
2022/08/10 04:38:55;;;;;;;27.05;16.75;;;;;;;;;;4968925;28;20022;-85
2022/08/10 04:41:21;;;;;;;25.77;16.13;;;;;;;;;;4969188;28;20072;-85
2022/08/10 04:43:47;;;;;;;31.67;16.33;;;;;;;;;;4968308;28;20035;-84
2022/08/10 04:46:13;;;;;;;28.42;17.05;;;;;;;;;;5033461;28;20031;-75
2022/08/10 04:48:39;;;;;;;25.77;14.95;;;;;;;;;;4950451;28;20110;-75
2022/08/10 04:51:05;;;;;;;22.52;15.43;;;;;;;;;;5034113;28;20113;-76
2022/08/10 04:53:31;;;;;;;28.67;14.93;;;;;;;;;;4948932;28;20019;-75
2022/08/10 04:55:57;;;;;;;21.98;13.18;;;;;;;;;;4963900;28;20083;-77
2022/08/10 04:58:23;;;;;;;26.35;14.35;;;;;;;;;;4969689;28;20034;-77
2022/08/10 05:00:49;;;;;;;16.17;12.50;;;;;;;;;;4963270;28;20142;-77
2022/08/10 05:03:15;;;;;;;21.60;13.40;;;;;;;;;;4972455;28;20096;-77
2022/08/10 05:05:41;;;;;;;17.42;12.07;;;;;;;;;;4932195;28;20039;-75
2022/08/10 05:08:07;;;;;;;28.45;11.98;;;;;;;;;;4959288;28;20050;-75
2022/08/10 05:10:33;;;;;;;16.35;11.00;;;;;;;;;;4946746;28;20108;-76
2022/08/10 05:12:59;;;;;;;16.20;10.98;;;;;;;;;;4944277;28;20035;-75
2022/08/10 05:15:26;;;;;;;18.40;11.63;;;;;;;;;;4952369;28;20043;-76
2022/08/10 05:17:52;;;;;;;12.20;10.52;;;;;;;;;;4942320;28;20038;-75
2022/08/10 05:20:19;;;;;;;14.57;10.60;;;;;;;;;;4950507;28;20034;-76
2022/08/10 05:22:45;;;;;;;12.48;9.75;;;;;;;;;;4981655;28;20038;-75
2022/08/10 05:25:12;;;;;;;14.15;9.63;;;;;;;;;;4931391;28;20063;-78
2022/08/10 05:27:39;;;;;;;13.48;9.35;;;;;;;;;;4944928;28;20046;-75
2022/08/10 05:30:06;;;;;;;13.80;9.27;;;;;;;;;;4950844;28;20028;-77
2022/08/10 05:32:33;;;;;;;13.20;9.05;;;;;;;;;;4981484;28;20039;-75
2022/08/10 05:34:59;;;;;;;10.43;8.88;;;;;;;;;;4967284;28;20042;-77
2022/08/10 05:37:25;;;;;;;13.75;8.95;;;;;;;;;;4966453;28;20104;-75
2022/08/10 05:39:53;;;;;;;12.05;9.02;;;;;;;;;;4950654;29;20205;-77
2022/08/10 05:42:20;;;;;;;13.60;8.70;;;;;;;;;;4949700;28;20674;-76
2022/08/10 05:44:46;;;;;;;14.77;9.15;;;;;;;;;;4929745;29;20031;-75
2022/08/10 05:47:12;;;;;;;11.60;9.30;;;;;;;;;;4942505;28;20039;-75
2022/08/10 05:49:38;;;;;;;14.93;9.38;;;;;;;;;;4932121;28;20028;-76
2022/08/10 05:52:04;;;;;;;12.43;8.98;;;;;;;;;;4943708;28;20046;-76
2022/08/10 05:54:30;;;;;;;14.68;8.80;;;;;;;;;;4926991;28;20031;-76
2022/08/10 05:56:56;;;;;;;12.70;8.52;;;;;;;;;;4943934;28;20039;-76
2022/08/10 05:59:23;;;;;;;10.80;8.80;;;;;;;;;;4949326;28;20093;-76
2022/08/10 06:01:51;;;;;;;12.32;8.55;;;;;;;;;;4945167;28;20128;-76
2022/08/10 06:04:24;;;;;;;15.68;8.75;;;;;;;;;;4968334;28;20100;-75
2022/08/10 06:06:51;;;;;;;13.70;8.52;;;;;;;;;;4949591;28;20559;-75
2022/08/10 06:09:18;;;;;;;18.90;9.18;;;;;;;;;;4955639;28;20125;-76
2022/08/10 06:11:45;;;;;;;21.05;9.65;;;;;;;;;;4948277;28;20035;-76
2022/08/10 06:16:59;;;;;;;18.67;8.55;;;;;;;;;;4965422;28;20133;-76
2022/08/10 06:19:26;;;;;;;15.60;8.45;;;;;;;;;;4972275;28;20072;-76
2022/08/10 06:21:54;;;;;;;16.60;8.15;;;;;;;;;;4951797;28;20042;-76
2022/08/10 06:24:22;;;;;;;14.27;8.30;;;;;;;;;;4966019;28;20030;-76
2022/08/10 06:26:48;;;;;;;13.75;8.20;;;;;;;;;;4961532;28;20035;-76
2022/08/10 06:29:16;;;;;;;11.35;7.82;;;;;;;;;;4970960;28;20096;-76
2022/08/10 06:31:43;;;;;;;10.93;7.72;;;;;;;;;;4949413;28;20027;-76
2022/08/10 06:34:10;;;;;;;11.50;8.00;;;;;;;;;;4947847;28;20032;-76
2022/08/10 06:36:36;;;;;;;11.93;8.07;;;;;;;;;;4965647;28;20407;-76
2022/08/10 06:39:03;;;;;;;11.75;7.90;;;;;;;;;;5042043;28;20030;-76
2022/08/10 06:41:31;;;;;;;9.85;7.10;;;;;;;;;;4960693;28;20031;-76
2022/08/10 06:44:04;;;;;;;14.70;7.30;;;;;;;;;;4946838;28;20023;-75
2022/08/10 06:46:34;;;;;;;17.42;7.53;;;;;;;;;;4967861;28;20038;-76
2022/08/10 06:49:01;;;;;;;15.32;7.60;;;;;;;;;;4964691;28;20392;-76
2022/08/10 06:51:29;;;;;;;10.82;6.72;;;;;;;;;;4957555;28;20042;-76
2022/08/10 06:53:56;;;;;;;9.90;7.07;;;;;;;;;;4961307;28;20062;-76
2022/08/10 06:56:23;;;;;;;10.13;7.28;;;;;;;;;;4961594;28;20464;-76
2022/08/10 06:58:58;;;;;;;10.95;6.70;;;;;;;;;;4965682;28;20042;-76
2022/08/10 07:01:30;;;;;;;20.90;7.50;;;;;;;;;;4964653;28;20499;-76
2022/08/10 07:04:08;;;;;;;13.63;6.53;;;;;;;;;;4958028;28;20046;-76
2022/08/10 07:06:35;;;;;;;9.77;6.78;;;;;;;;;;4964506;28;20096;-76
2022/08/10 07:09:02;;;;;;;13.18;6.47;;;;;;;;;;4959024;28;20088;-76
2022/08/10 07:11:29;;;;;;;11.63;6.57;;;;;;;;;;5030824;28;20130;-76
2022/08/10 07:13:57;;;;;;;10.80;6.07;;;;;;;;;;4951294;28;20085;-76
2022/08/10 07:16:27;;;;;;;11.10;5.40;;;;;;;;;;4963516;28;20092;-77
2022/08/10 07:18:53;;;;;;;17.42;5.90;;;;;;;;;;4965324;28;20031;-76
2022/08/10 07:21:20;;;;;;;17.73;5.88;;;;;;;;;;4968278;28;20028;-76
2022/08/10 07:23:47;;;;;;;9.10;4.78;;;;;;;;;;4964502;28;20438;-76
2022/08/10 07:26:13;;;;;;;9.32;5.10;;;;;;;;;;5026749;28;20039;-77
2022/08/10 07:28:40;;;;;;;7.55;5.30;;;;;;;;;;4966472;28;20089;-76
2022/08/10 07:31:06;;;;;;;6.13;4.45;;;;;;;;;;4966321;28;20066;-76
2022/08/10 07:33:34;;;;;;;9.55;4.85;;;;;;;;;;4962737;28;20031;-75
2022/08/10 07:36:00;;;;;;;13.90;5.03;;;;;;;;;;5027736;28;20027;-77
2022/08/10 07:38:28;;;;;;;17.50;4.93;;;;;;;;;;4964385;28;20054;-75
2022/08/10 07:40:54;;;;;;;11.80;4.35;;;;;;;;;;4966977;28;20038;-77
2022/08/10 07:43:23;;;;;;;19.27;4.72;;;;;;;;;;4970166;28;20022;-76
2022/08/10 07:45:49;;;;;;;7.18;3.92;;;;;;;;;;4964748;28;20066;-76
2022/08/10 07:48:18;;;;;;;9.63;3.42;;;;;;;;;;4961304;28;20042;-75
2022/08/10 07:50:45;;;;;;;6.20;3.55;;;;;;;;;;4962144;28;20452;-75
2022/08/10 07:53:14;;;;;;;10.85;4.72;;;;;;;;;;4973147;28;20125;-76
2022/08/10 07:55:41;;;;;;;19.25;4.60;;;;;;;;;;4968410;28;20074;-76
2022/08/10 07:58:08;;;;;;;9.43;4.05;;;;;;;;;;4969621;28;20407;-77
2022/08/10 08:00:34;;;;;;;7.05;4.25;;;;;;;;;;4953276;28;20084;-76
2022/08/10 08:03:01;;;;;;;10.73;3.72;;;;;;;;;;5038549;28;20127;-76
2022/08/10 08:05:31;;;;;;;8.60;3.85;;;;;;;;;;4956437;28;20092;-77
2022/08/10 08:07:57;;;;;;;12.60;3.83;;;;;;;;;;4971042;28;20046;-76
2022/08/10 08:10:25;;;;;;;7.47;3.38;;;;;;;;;;4970299;28;20035;-75
2022/08/10 08:12:52;;;;;;;5.88;3.22;;;;;;;;;;4967703;28;20035;-76
2022/08/10 08:15:19;;;;;;;5.18;2.60;;;;;;;;;;4982616;28;20040;-76
2022/08/10 08:17:45;;;;;;;5.88;3.13;;;;;;;;;;4972109;28;20034;-76
2022/08/10 08:20:12;;;;;;;6.53;3.53;;;;;;;;;;4979170;28;20027;-76
2022/08/10 08:22:38;;;;;;;6.70;3.28;;;;;;;;;;4951108;28;20031;-76
2022/08/10 08:25:04;;;;;;;4.63;2.92;;;;;;;;;;4953013;28;20559;-76
2022/08/10 08:27:31;;;;;;;6.32;3.53;;;;;;;;;;4954145;28;20031;-76
2022/08/10 08:29:57;;;;;;;9.85;3.33;;;;;;;;;;4955463;28;20506;-76
2022/08/10 08:32:25;;;;;;;6.10;2.78;;;;;;;;;;4970048;28;20621;-77
2022/08/10 08:35:14;;;;;;;10.90;3.33;;;;;;;;;;4971328;28;20034;-77
2022/08/10 08:37:41;;;;;;;7.85;3.20;;;;;;;;;;4971086;28;20092;-75
2022/08/10 08:40:09;;;;;;;12.07;3.17;;;;;;;;;;4960530;28;20030;-76
2022/08/10 08:42:54;;;;;;;5.00;2.67;;;;;;;;;;4970087;28;20023;-75
2022/08/10 08:45:33;;;;;;;8.13;2.97;;;;;;;;;;4970365;28;20069;-76
2022/08/10 08:48:05;;;;;;;8.25;2.83;;;;;;;;;;4970478;28;20113;-79
2022/08/10 08:50:31;;;;;;;6.30;2.50;;;;;;;;;;4970698;28;20097;-76
2022/08/10 08:53:09;;;;;;;8.07;2.70;;;;;;;;;;4970142;28;20114;-77
2022/08/10 08:55:42;;;;;;;17.40;2.60;;;;;;;;;;4970921;28;20031;-76
2022/08/10 08:58:11;;;;;;;9.05;2.40;;;;;;;;;;4971140;28;20027;-77
2022/08/10 09:00:37;;;;;;;6.75;1.90;;;;;;;;;;4969915;28;20067;-77
2022/08/10 09:03:21;;;;;;;17.67;2.83;;;;;;;;;;4969668;28;20436;-77
2022/08/10 09:05:58;;;;;;;5.22;2.15;;;;;;;;;;4968697;28;20050;-77
2022/08/10 09:08:44;;;;;;;8.05;1.92;;;;;;;;;;4955563;28;20043;-77
2022/08/10 09:11:19;;;;;;;6.55;2.00;;;;;;;;;;4973377;28;20084;-77
2022/08/10 09:14:08;;;;;;;8.73;2.20;;;;;;;;;;4953292;28;20108;-77
2022/08/10 09:16:42;;;;;;;7.63;1.60;;;;;;;;;;4965224;28;20595;-77
2022/08/10 09:19:27;;;;;;;8.38;1.98;;;;;;;;;;4970815;28;20034;-76
2022/08/10 09:22:12;;;;;;;12.27;2.00;;;;;;;;;;4952459;28;20034;-76
2022/08/10 09:24:42;;;;;;;9.23;2.28;;;;;;;;;;4952838;28;20067;-76
2022/08/10 09:27:14;;;;;;;7.03;1.85;;;;;;;;;;4970377;28;20035;-77
2022/08/10 09:29:44;;;;;;;10.05;1.92;;;;;;;;;;4951214;28;20050;-76
2022/08/10 09:32:13;;;;;;;37.22;3.75;;;;;;;;;;4962452;28;20031;-76
2022/08/10 09:34:55;;;;;;;11.13;2.60;;;;;;;;;;4952436;28;20050;-77
2022/08/10 09:37:28;;;;;;;29.83;2.58;;;;;;;;;;4971524;28;20069;-76
2022/08/10 09:39:57;;;;;;;18.52;2.45;;;;;;;;;;4970070;28;20399;-77
2022/08/10 09:42:26;;;;;;;15.00;2.00;;;;;;;;;;4968073;28;20827;-77
2022/08/10 09:44:52;;;;;;;10.57;2.20;;;;;;;;;;4969931;28;20485;-77
2022/08/10 09:47:18;;;;;;;3.53;1.63;;;;;;;;;;4960242;28;20483;-77
2022/08/10 09:49:53;;;;;;;3.72;1.90;;;;;;;;;;4960517;28;20026;-76
2022/08/10 09:52:34;;;;;;;6.10;1.75;;;;;;;;;;4969095;28;20038;-76
2022/08/10 09:55:10;;;;;;;6.68;1.70;;;;;;;;;;4969745;28;20035;-78
2022/08/10 09:57:55;;;;;;;5.22;1.70;;;;;;;;;;4970230;28;20031;-76
2022/08/10 10:00:26;;;;;;;5.25;1.75;;;;;;;;;;5036689;28;20038;-76
2022/08/10 10:03:05;;;;;;;9.65;1.80;;;;;;;;;;4969710;28;20031;-76
2022/08/10 10:05:57;;;;;;;6.55;1.63;;;;;;;;;;4951825;28;20074;-76
2022/08/10 10:08:40;;;;;;;5.07;1.73;;;;;;;;;;4967187;28;20090;-76
2022/08/10 10:11:11;;;;;;;6.25;1.70;;;;;;;;;;4952412;28;20380;-76
2022/08/10 10:13:44;;;;;;;12.20;1.42;;;;;;;;;;4968641;28;20029;-76
2022/08/10 10:16:31;;;;;;;5.00;1.40;;;;;;;;;;4969954;28;20030;-76
2022/08/10 10:19:09;;;;;;;8.98;1.88;;;;;;;;;;4949635;28;20104;-78
2022/08/10 10:21:38;;;;;;;4.95;1.63;;;;;;;;;;4969690;28;20042;-77
2022/08/10 10:24:07;;;;;;;4.53;1.50;;;;;;;;;;4951758;28;20108;-77
2022/08/10 10:26:45;;;;;;;4.85;1.58;;;;;;;;;;4969697;28;20035;-76
2022/08/10 10:29:25;;;;;;;7.05;2.10;;;;;;;;;;4968517;28;20035;-76
2022/08/10 10:32:09;;;;;;;3.58;1.58;;;;;;;;;;4969420;28;20541;-77
2022/08/10 10:34:35;;;;;;;8.55;1.77;;;;;;;;;;4968884;28;20034;-76
2022/08/10 10:37:05;;;;;;;8.40;2.10;;;;;;;;;;4969558;28;20089;-82
2022/08/10 10:39:31;;;;;;;5.57;1.80;;;;;;;;;;4956838;28;20110;-75
2022/08/10 10:42:16;;;;;;;10.48;1.90;;;;;;;;;;4948669;29;20456;-75
2022/08/10 10:44:48;;;;;;;7.93;1.88;;;;;;;;;;4945096;28;20053;-75
2022/08/10 10:47:23;;;;;;;10.68;1.30;;;;;;;;;;4949995;28;20046;-76
2022/08/10 10:49:57;;;;;;;9.02;1.63;;;;;;;;;;4951369;28;20023;-76
2022/08/10 10:52:37;;;;;;;2.63;1.50;;;;;;;;;;4967176;28;20400;-76
2022/08/10 10:55:03;;;;;;;;;;;;;;;;;;4969520;28;20037;-77
2022/08/10 10:57:39;;;;;;;8.07;1.30;;;;;;;;;;4969258;28;19914;-75
2022/08/10 11:00:08;;;;;;;5.40;1.70;;;;;;;;;;4969027;28;20030;-75
2022/08/10 11:02:53;;;;;;;3.50;1.73;;;;;;;;;;4952515;28;20590;-75
2022/08/10 11:05:28;;;;;;;5.13;1.38;;;;;;;;;;4950865;28;20051;-76
2022/08/10 11:08:23;;;;;;;4.75;1.60;;;;;;;;;;4969145;28;20381;-75
2022/08/10 11:10:49;;;;;;;4.28;1.60;;;;;;;;;;4972075;28;20085;-76
2022/08/10 11:13:15;;;;;;;3.83;1.63;;;;;;;;;;4951075;28;20491;-76
2022/08/10 11:15:46;;;;;;;3.35;1.70;;;;;;;;;;4968896;28;20030;-77
2022/08/10 11:18:22;;;;;;;9.57;1.85;;;;;;;;;;4951696;28;20026;-76
2022/08/10 11:21:00;;;;;;;7.07;1.52;;;;;;;;;;4967678;28;20115;-77
2022/08/10 11:23:43;;;;;;;15.43;1.88;;;;;;;;;;4966663;28;20385;-76
2022/08/10 11:26:12;;;;;;;5.95;1.75;;;;;;;;;;4968103;28;20046;-76
2022/08/10 11:28:41;;;;;;;4.25;1.60;;;;;;;;;;4969027;28;20455;-76
2022/08/10 11:31:07;;;;;;;7.30;1.60;;;;;;;;;;4968301;28;20070;-75
2022/08/10 11:33:52;;;;;;;3.85;1.67;;;;;;;;;;4967666;28;20042;-76
2022/08/10 11:36:27;;;;;;;14.50;2.00;;;;;;;;;;4967680;28;20082;-76
2022/08/10 11:39:17;;;;;;;6.07;2.10;;;;;;;;;;5027212;28;20193;-76
2022/08/10 11:41:43;;;;;;;7.82;1.50;;;;;;;;;;4985075;28;20038;-76
2022/08/10 11:44:28;;;;;;;11.65;1.98;;;;;;;;;;4950246;28;20035;-75
2022/08/10 11:47:11;;;;;;;6.63;1.63;;;;;;;;;;4968105;28;20064;-76
2022/08/10 11:49:44;;;;;;;6.28;1.88;;;;;;;;;;4950447;28;20648;-86
2022/08/10 11:52:16;;;;;;;3.90;1.60;;;;;;;;;;4967478;28;20066;-84
2022/08/10 11:54:45;;;;;;;7.40;1.63;;;;;;;;;;4965244;28;20041;-86
2022/08/10 11:57:11;;;;;;;7.60;1.77;;;;;;;;;;4967486;28;20042;-86
2022/08/10 11:59:56;;;;;;;14.35;2.75;;;;;;;;;;4968412;28;20031;-85
2022/08/10 12:02:28;;;;;;;3.63;1.48;;;;;;;;;;4967118;28;20768;-85
2022/08/10 12:04:57;;;;;;;5.82;1.60;;;;;;;;;;4966423;28;20484;-86
2022/08/10 12:07:25;;;;;;;7.07;1.58;;;;;;;;;;4950902;28;20519;-86
2022/08/10 12:09:52;;;;;;;5.40;1.60;;;;;;;;;;4968472;28;20023;-86
2022/08/10 12:12:18;;;;;;;3.53;1.33;;;;;;;;;;4951189;28;20483;-76
2022/08/10 12:14:52;;;;;;;6.35;1.80;;;;;;;;;;4950778;28;20050;-76
2022/08/10 12:17:27;;;;;;;4.53;1.73;;;;;;;;;;4966803;28;20046;-76
2022/08/10 12:20:04;;;;;;;2.95;1.42;;;;;;;;;;4968512;28;20027;-85
2022/08/10 12:22:40;;;;;;;5.13;1.70;;;;;;;;;;4968832;28;20027;-84
2022/08/10 12:25:10;;;;;;;8.55;1.55;;;;;;;;;;4968014;28;20114;-85
2022/08/10 12:27:36;;;;;;;;;;;;;;;;;;4952951;28;20039;-84
2022/08/10 12:30:04;;;;;;;6.60;1.55;;;;;;;;;;4949169;29;19913;-85
2022/08/10 12:32:35;;;;;;;15.25;2.08;;;;;;;;;;4961137;28;20038;-75
2022/08/10 12:35:06;;;;;;;18.30;1.98;;;;;;;;;;4967982;28;20037;-75
2022/08/10 12:37:40;;;;;;;2.78;1.50;;;;;;;;;;4954188;28;20031;-75
2022/08/10 12:40:14;;;;;;;6.90;1.60;;;;;;;;;;4950539;29;20039;-76
2022/08/10 12:42:46;;;;;;;4.78;1.40;;;;;;;;;;4962932;28;20030;-76
2022/08/10 12:45:34;;;;;;;7.28;1.50;;;;;;;;;;4969534;28;20114;-75
2022/08/10 12:48:18;;;;;;;4.82;1.40;;;;;;;;;;4961697;28;20088;-75
2022/08/10 12:51:03;;;;;;;5.18;1.25;;;;;;;;;;4970360;28;20039;-75
2022/08/10 12:53:43;;;;;;;7.25;1.55;;;;;;;;;;4968350;28;20042;-75
2022/08/10 12:56:09;;;;;;;5.60;1.50;;;;;;;;;;4970970;28;20023;-85
2022/08/10 12:58:39;;;;;;;2.53;1.38;;;;;;;;;;4968718;28;20144;-76
2022/08/10 13:01:05;;;;;;;;;;;;;;;;;;4953697;28;20113;-76
2022/08/10 13:03:33;;;;;;;4.45;1.48;;;;;;;;;;4970431;28;19906;-76
2022/08/10 13:06:02;;;;;;;5.75;1.60;;;;;;;;;;4963891;28;20032;-77
2022/08/10 13:11:17;;;;;;;4.28;1.40;;;;;;;;;;4966999;28;20042;-75
2022/08/10 13:13:46;;;;;;;2.15;1.25;;;;;;;;;;4969395;28;20031;-75
2022/08/10 13:16:12;;;;;;;3.08;1.48;;;;;;;;;;4970308;28;20376;-76
2022/08/10 13:18:40;;;;;;;4.30;1.20;;;;;;;;;;4970977;28;20105;-76
2022/08/10 13:21:08;;;;;;;4.32;1.33;;;;;;;;;;4969423;28;20023;-76
2022/08/10 13:23:42;;;;;;;3.15;1.42;;;;;;;;;;4957498;28;20023;-76
2022/08/10 13:26:11;;;;;;;3.20;1.23;;;;;;;;;;4968126;28;20075;-75
2022/08/10 13:28:42;;;;;;;2.90;1.23;;;;;;;;;;4954720;28;20037;-76
2022/08/10 13:31:10;;;;;;;2.72;1.23;;;;;;;;;;4970771;28;20038;-76
2022/08/10 13:33:39;;;;;;;9.48;1.58;;;;;;;;;;4970484;28;20038;-76
2022/08/10 13:36:06;;;;;;;6.10;2.13;;;;;;;;;;4969932;28;20034;-75
2022/08/10 13:38:33;;;;;;;7.60;1.38;;;;;;;;;;4969833;28;20294;-75
2022/08/10 13:40:59;;;;;;;4.30;1.40;;;;;;;;;;4952238;28;20031;-85
2022/08/10 13:43:26;;;;;;;11.07;1.52;;;;;;;;;;4970027;28;20035;-85
2022/08/10 13:45:53;;;;;;;10.60;1.58;;;;;;;;;;4970815;28;20027;-85
2022/08/10 13:48:21;;;;;;;9.55;1.38;;;;;;;;;;4969661;28;20038;-84
2022/08/10 13:50:48;;;;;;;5.07;1.38;;;;;;;;;;5034805;28;20030;-75
2022/08/10 13:53:15;;;;;;;6.82;1.73;;;;;;;;;;4952543;28;20535;-75
2022/08/10 13:55:55;;;;;;;8.02;1.52;;;;;;;;;;4969756;28;20430;-75
2022/08/10 13:58:37;;;;;;;4.40;1.13;;;;;;;;;;4969665;28;20037;-75
2022/08/10 14:01:10;;;;;;;3.70;1.20;;;;;;;;;;4969653;28;20035;-76
2022/08/10 14:03:38;;;;;;;9.15;1.50;;;;;;;;;;4970357;28;20058;-75
2022/08/10 14:06:05;;;;;;;4.05;1.50;;;;;;;;;;4970001;28;20027;-75
2022/08/10 14:08:34;;;;;;;4.35;1.27;;;;;;;;;;4970074;28;20057;-76
2022/08/10 14:11:01;;;;;;;4.22;1.20;;;;;;;;;;4970237;28;20515;-77
2022/08/10 14:13:28;;;;;;;7.13;1.27;;;;;;;;;;4939415;28;20031;-77
2022/08/10 14:15:55;;;;;;;6.65;1.63;;;;;;;;;;4954330;28;20049;-77
2022/08/10 14:18:22;;;;;;;7.65;1.48;;;;;;;;;;4969857;28;20034;-77
2022/08/10 14:20:48;;;;;;;7.45;1.42;;;;;;;;;;4970027;28;20026;-77
2022/08/10 14:23:14;;;;;;;8.07;1.50;;;;;;;;;;4952265;28;20123;-77
2022/08/10 14:25:49;;;;;;;14.63;1.90;;;;;;;;;;4968784;28;20030;-77
2022/08/10 14:28:17;;;;;;;12.20;1.60;;;;;;;;;;4967539;28;20039;-77
2022/08/10 14:30:43;;;;;;;9.02;1.70;;;;;;;;;;4969899;28;20030;-77
2022/08/10 14:33:13;;;;;;;3.03;1.42;;;;;;;;;;4969911;28;20026;-77
2022/08/10 14:35:43;;;;;;;6.72;1.85;;;;;;;;;;4969036;28;20088;-77
2022/08/10 14:38:12;;;;;;;5.78;1.52;;;;;;;;;;4969072;28;20522;-76
2022/08/10 14:40:43;;;;;;;3.88;1.23;;;;;;;;;;4969033;28;20030;-76
2022/08/10 14:43:24;;;;;;;12.00;1.75;;;;;;;;;;4968839;28;20030;-77
2022/08/10 14:46:25;;;;;;;9.48;1.98;;;;;;;;;;4969294;28;20033;-77
2022/08/10 14:48:52;;;;;;;5.78;1.52;;;;;;;;;;4988187;28;20105;-76
2022/08/10 14:51:20;;;;;;;13.88;1.65;;;;;;;;;;4971905;28;20039;-76
2022/08/10 14:53:50;;;;;;;5.40;1.42;;;;;;;;;;4951460;28;20034;-76
2022/08/10 14:56:18;;;;;;;4.75;1.80;;;;;;;;;;4968960;28;20360;-77
2022/08/10 14:58:51;;;;;;;10.32;1.58;;;;;;;;;;4950380;28;20041;-76
2022/08/10 15:01:18;;;;;;;3.83;1.08;;;;;;;;;;4967407;28;20027;-76